Time,TemperatureF,DewpointF,PressureIn,WindDirection,WindDirectionDegrees,WindSpeedMPH,WindSpeedGustMPH,Humidity,HourlyPrecipIn,Conditions,Clouds,dailyrainin,SolarRadiationWatts/m^2,SoftwareType,DateUTC
2013-09-18 00:22:00,67.0,46.0,-100.00,South,191,11.0,20.0,47,0.00,,,0.06,0.000000,,2013-09-18 06:22:00,
2013-09-18 00:33:00,67.0,46.0,-100.00,South,191,11.0,20.0,47,0.00,,,0.06,0.000000,,2013-09-18 06:33:00,
2013-09-18 00:42:00,67.0,46.0,-100.00,South,191,11.0,20.0,47,0.00,,,0.06,0.000000,,2013-09-18 06:42:00,
2013-09-18 01:22:00,59.0,52.0,-100.00,West,280,3.0,23.0,78,0.00,,,0.06,0.000000,,2013-09-18 07:22:00,
2013-09-18 01:32:00,59.0,52.0,-100.00,West,280,3.0,23.0,78,0.00,,,0.06,0.000000,,2013-09-18 07:32:00,
2013-09-18 01:42:00,59.0,52.0,-100.00,West,280,3.0,23.0,78,0.00,,,0.06,0.000000,,2013-09-18 07:42:00,
2013-09-18 02:22:00,57.0,53.0,-100.00,SSE,163,8.0,13.0,87,0.04,,,0.10,0.000000,,2013-09-18 08:22:00,
2013-09-18 02:32:00,57.0,53.0,-100.00,SSE,163,8.0,13.0,87,0.04,,,0.10,0.000000,,2013-09-18 08:32:00,
2013-09-18 02:42:00,57.0,53.0,-100.00,SSE,163,8.0,13.0,87,0.04,,,0.10,0.000000,,2013-09-18 08:42:00,
2013-09-18 03:22:00,61.0,50.0,-100.00,SSW,197,10.0,20.0,66,0.00,,,0.10,0.000000,,2013-09-18 09:22:00,
2013-09-18 03:33:00,61.0,50.0,-100.00,SSW,197,10.0,20.0,66,0.00,,,0.10,0.000000,,2013-09-18 09:33:00,
2013-09-18 03:43:00,61.0,50.0,-100.00,SSW,197,10.0,20.0,66,0.00,,,0.10,0.000000,,2013-09-18 09:43:00,
2013-09-18 04:13:00,63.0,48.0,-100.00,SSW,194,8.0,16.0,57,0.00,,,0.10,0.000000,,2013-09-18 10:13:00,
2013-09-18 04:23:00,63.0,48.0,-100.00,SSW,194,8.0,16.0,57,0.00,,,0.10,0.000000,,2013-09-18 10:23:00,
2013-09-18 04:33:00,63.0,48.0,-100.00,SSW,194,8.0,16.0,57,0.00,,,0.10,0.000000,,2013-09-18 10:33:00,
2013-09-18 04:42:00,63.0,48.0,-100.00,SSW,194,8.0,16.0,57,0.00,,,0.10,0.000000,,2013-09-18 10:42:00,
2013-09-18 05:22:00,62.0,47.0,-100.00,SSW,202,9.0,16.0,57,0.00,,,0.10,0.000000,,2013-09-18 11:22:00,
2013-09-18 05:33:00,62.0,47.0,-100.00,SSW,202,9.0,16.0,57,0.00,,,0.10,0.000000,,2013-09-18 11:33:00,
2013-09-18 05:42:00,62.0,47.0,-100.00,SSW,202,9.0,16.0,57,0.00,,,0.10,0.000000,,2013-09-18 11:42:00,
2013-09-18 06:12:00,62.0,45.0,-100.00,SW,219,8.0,18.0,54,0.00,,,0.10,0.000000,,2013-09-18 12:12:00,
2013-09-18 06:22:00,62.0,45.0,-100.00,SW,219,8.0,18.0,54,0.00,,,0.10,0.000000,,2013-09-18 12:22:00,
2013-09-18 06:32:00,62.0,45.0,-100.00,SW,219,8.0,18.0,54,0.00,,,0.10,0.000000,,2013-09-18 12:32:00,
2013-09-18 06:42:00,62.0,45.0,-100.00,SW,219,8.0,18.0,54,0.00,,,0.10,0.000000,,2013-09-18 12:42:00,
2013-09-18 22:14:00,60.0,38.0,-100.00,SW,231,5.0,11.0,44,0.00,,,0.04,0.000000,,2013-09-19 04:14:00,
2013-09-18 22:25:00,60.0,38.0,-100.00,SW,231,5.0,11.0,44,0.00,,,0.04,0.000000,,2013-09-19 04:25:00,
2013-09-18 22:33:00,60.0,38.0,-100.00,SW,231,5.0,11.0,44,0.00,,,0.04,0.000000,,2013-09-19 04:33:00,
2013-09-18 22:43:00,60.0,38.0,-100.00,SW,231,5.0,11.0,44,0.00,,,0.04,0.000000,,2013-09-19 04:43:00,
2013-09-18 23:23:00,58.0,41.0,-100.00,NW,306,4.0,9.0,54,0.00,,,0.04,0.000000,,2013-09-19 05:23:00,
2013-09-18 23:34:00,58.0,41.0,-100.00,NW,306,4.0,9.0,54,0.00,,,0.04,0.000000,,2013-09-19 05:34:00,
2013-09-18 23:43:00,58.0,41.0,-100.00,NW,306,4.0,9.0,54,0.00,,,0.04,0.000000,,2013-09-19 05:43:00,